sensor_id;sensor_type;location;lat;lon;timestamp;P1;durP1;ratioP1;P2;durP2;ratioP2
6785;SDS011;3430;51.192;6.048;2022-12-26T00:01:16;3.83;;;3.10;;
6785;SDS011;3430;51.192;6.048;2022-12-26T00:03:42;3.47;;;3.07;;
6785;SDS011;3430;51.192;6.048;2022-12-26T00:06:15;5.20;;;3.70;;
6785;SDS011;3430;51.192;6.048;2022-12-26T00:08:41;4.27;;;2.93;;
6785;SDS011;3430;51.192;6.048;2022-12-26T00:11:06;4.63;;;3.23;;
6785;SDS011;3430;51.192;6.048;2022-12-26T00:13:32;3.83;;;3.47;;
6785;SDS011;3430;51.192;6.048;2022-12-26T00:15:57;3.63;;;3.33;;
6785;SDS011;3430;51.192;6.048;2022-12-26T00:18:22;3.97;;;3.23;;
6785;SDS011;3430;51.192;6.048;2022-12-26T00:20:48;4.10;;;3.33;;
6785;SDS011;3430;51.192;6.048;2022-12-26T00:23:13;3.17;;;2.73;;
6785;SDS011;3430;51.192;6.048;2022-12-26T00:25:38;3.80;;;3.33;;
6785;SDS011;3430;51.192;6.048;2022-12-26T00:28:04;4.23;;;3.13;;
6785;SDS011;3430;51.192;6.048;2022-12-26T00:30:29;4.13;;;3.10;;
6785;SDS011;3430;51.192;6.048;2022-12-26T00:32:54;5.13;;;3.13;;
6785;SDS011;3430;51.192;6.048;2022-12-26T00:35:20;3.77;;;3.43;;
6785;SDS011;3430;51.192;6.048;2022-12-26T00:37:45;3.60;;;3.30;;
6785;SDS011;3430;51.192;6.048;2022-12-26T00:40:11;5.13;;;2.73;;
6785;SDS011;3430;51.192;6.048;2022-12-26T00:42:36;2.80;;;2.60;;
6785;SDS011;3430;51.192;6.048;2022-12-26T00:45:02;3.80;;;3.50;;
6785;SDS011;3430;51.192;6.048;2022-12-26T00:47:27;3.50;;;3.20;;
6785;SDS011;3430;51.192;6.048;2022-12-26T00:49:53;4.53;;;2.80;;
6785;SDS011;3430;51.192;6.048;2022-12-26T00:52:18;4.07;;;3.33;;
6785;SDS011;3430;51.192;6.048;2022-12-26T00:54:44;3.30;;;3.00;;
6785;SDS011;3430;51.192;6.048;2022-12-26T00:57:09;3.03;;;2.57;;
6785;SDS011;3430;51.192;6.048;2022-12-26T00:59:35;5.80;;;3.13;;
6785;SDS011;3430;51.192;6.048;2022-12-26T01:02:00;3.10;;;2.80;;
6785;SDS011;3430;51.192;6.048;2022-12-26T01:04:26;3.93;;;2.63;;
6785;SDS011;3430;51.192;6.048;2022-12-26T01:06:51;3.30;;;3.00;;
6785;SDS011;3430;51.192;6.048;2022-12-26T01:09:17;3.13;;;2.60;;
6785;SDS011;3430;51.192;6.048;2022-12-26T01:11:42;3.50;;;2.53;;
6785;SDS011;3430;51.192;6.048;2022-12-26T01:14:12;3.13;;;2.93;;
6785;SDS011;3430;51.192;6.048;2022-12-26T01:16:38;3.53;;;3.00;;
6785;SDS011;3430;51.192;6.048;2022-12-26T01:19:04;3.70;;;2.70;;
6785;SDS011;3430;51.192;6.048;2022-12-26T01:21:29;6.00;;;2.70;;
6785;SDS011;3430;51.192;6.048;2022-12-26T01:23:55;3.00;;;2.50;;
6785;SDS011;3430;51.192;6.048;2022-12-26T01:26:20;3.27;;;2.90;;
6785;SDS011;3430;51.192;6.048;2022-12-26T01:28:50;3.13;;;2.70;;
6785;SDS011;3430;51.192;6.048;2022-12-26T01:31:16;4.47;;;2.87;;
6785;SDS011;3430;51.192;6.048;2022-12-26T01:33:41;3.07;;;2.77;;
6785;SDS011;3430;51.192;6.048;2022-12-26T01:36:07;3.27;;;2.97;;
6785;SDS011;3430;51.192;6.048;2022-12-26T01:38:32;2.87;;;2.57;;
6785;SDS011;3430;51.192;6.048;2022-12-26T01:40:57;4.07;;;3.03;;
6785;SDS011;3430;51.192;6.048;2022-12-26T01:46:15;3.37;;;2.73;;
6785;SDS011;3430;51.192;6.048;2022-12-26T01:48:40;2.90;;;2.67;;
6785;SDS011;3430;51.192;6.048;2022-12-26T01:51:05;2.97;;;2.60;;
6785;SDS011;3430;51.192;6.048;2022-12-26T01:53:35;3.03;;;2.83;;
6785;SDS011;3430;51.192;6.048;2022-12-26T01:56:37;3.23;;;2.50;;
6785;SDS011;3430;51.192;6.048;2022-12-26T01:58:55;3.60;;;3.30;;
6785;SDS011;3430;51.192;6.048;2022-12-26T02:01:23;3.83;;;3.13;;
6785;SDS011;3430;51.192;6.048;2022-12-26T02:03:49;3.30;;;3.00;;
6785;SDS011;3430;51.192;6.048;2022-12-26T02:06:34;3.97;;;2.70;;
6785;SDS011;3430;51.192;6.048;2022-12-26T02:08:59;3.33;;;2.80;;
6785;SDS011;3430;51.192;6.048;2022-12-26T02:11:38;2.70;;;2.50;;
6785;SDS011;3430;51.192;6.048;2022-12-26T02:14:05;3.50;;;2.93;;
6785;SDS011;3430;51.192;6.048;2022-12-26T02:16:31;2.93;;;2.70;;
6785;SDS011;3430;51.192;6.048;2022-12-26T02:18:56;3.43;;;3.10;;
6785;SDS011;3430;51.192;6.048;2022-12-26T02:26:29;2.80;;;2.60;;
6785;SDS011;3430;51.192;6.048;2022-12-26T02:36:46;3.70;;;3.33;;
6785;SDS011;3430;51.192;6.048;2022-12-26T02:44:42;3.27;;;2.97;;
6785;SDS011;3430;51.192;6.048;2022-12-26T02:47:34;2.60;;;2.40;;
6785;SDS011;3430;51.192;6.048;2022-12-26T02:53:06;3.10;;;2.77;;
6785;SDS011;3430;51.192;6.048;2022-12-26T02:55:52;2.90;;;2.70;;
6785;SDS011;3430;51.192;6.048;2022-12-26T03:01:37;4.07;;;2.93;;
6785;SDS011;3430;51.192;6.048;2022-12-26T03:04:21;3.83;;;2.80;;
6785;SDS011;3430;51.192;6.048;2022-12-26T03:07:10;3.30;;;3.00;;
6785;SDS011;3430;51.192;6.048;2022-12-26T03:09:55;3.90;;;2.80;;
6785;SDS011;3430;51.192;6.048;2022-12-26T03:12:43;3.30;;;3.00;;
6785;SDS011;3430;51.192;6.048;2022-12-26T03:15:30;3.23;;;2.60;;
6785;SDS011;3430;51.192;6.048;2022-12-26T03:18:19;3.37;;;3.07;;
6785;SDS011;3430;51.192;6.048;2022-12-26T03:20:45;3.07;;;2.80;;
6785;SDS011;3430;51.192;6.048;2022-12-26T03:23:12;3.87;;;2.80;;
6785;SDS011;3430;51.192;6.048;2022-12-26T03:25:39;3.67;;;3.37;;
6785;SDS011;3430;51.192;6.048;2022-12-26T03:28:25;2.77;;;2.57;;
6785;SDS011;3430;51.192;6.048;2022-12-26T03:30:50;2.73;;;2.53;;
6785;SDS011;3430;51.192;6.048;2022-12-26T03:33:17;3.57;;;3.27;;
6785;SDS011;3430;51.192;6.048;2022-12-26T03:36:03;3.50;;;3.20;;
6785;SDS011;3430;51.192;6.048;2022-12-26T03:41:18;3.00;;;2.63;;
6785;SDS011;3430;51.192;6.048;2022-12-26T03:44:16;3.33;;;3.03;;
6785;SDS011;3430;51.192;6.048;2022-12-26T03:47:10;3.13;;;2.70;;
6785;SDS011;3430;51.192;6.048;2022-12-26T03:49:56;2.60;;;2.40;;
6785;SDS011;3430;51.192;6.048;2022-12-26T03:58:25;2.90;;;2.70;;
6785;SDS011;3430;51.192;6.048;2022-12-26T04:01:18;3.17;;;2.87;;
6785;SDS011;3430;51.192;6.048;2022-12-26T04:04:04;3.37;;;3.07;;
6785;SDS011;3430;51.192;6.048;2022-12-26T04:06:49;3.03;;;2.73;;
6785;SDS011;3430;51.192;6.048;2022-12-26T04:09:35;2.80;;;2.60;;
6785;SDS011;3430;51.192;6.048;2022-12-26T04:12:21;3.07;;;2.87;;
6785;SDS011;3430;51.192;6.048;2022-12-26T04:18:14;2.73;;;2.53;;
6785;SDS011;3430;51.192;6.048;2022-12-26T04:23:33;3.00;;;2.80;;
6785;SDS011;3430;51.192;6.048;2022-12-26T04:26:21;3.03;;;2.70;;
6785;SDS011;3430;51.192;6.048;2022-12-26T04:29:07;2.97;;;2.70;;
6785;SDS011;3430;51.192;6.048;2022-12-26T04:34:39;3.57;;;2.73;;
6785;SDS011;3430;51.192;6.048;2022-12-26T04:37:25;2.70;;;2.50;;
6785;SDS011;3430;51.192;6.048;2022-12-26T04:40:14;2.70;;;2.47;;
6785;SDS011;3430;51.192;6.048;2022-12-26T04:42:58;3.13;;;2.90;;
6785;SDS011;3430;51.192;6.048;2022-12-26T04:45:42;2.50;;;2.30;;
6785;SDS011;3430;51.192;6.048;2022-12-26T04:48:09;3.03;;;2.70;;
6785;SDS011;3430;51.192;6.048;2022-12-26T04:50:53;3.17;;;2.87;;
6785;SDS011;3430;51.192;6.048;2022-12-26T04:53:18;3.47;;;3.17;;
6785;SDS011;3430;51.192;6.048;2022-12-26T04:55:44;3.13;;;2.83;;
6785;SDS011;3430;51.192;6.048;2022-12-26T04:58:10;3.07;;;2.80;;
6785;SDS011;3430;51.192;6.048;2022-12-26T05:00:35;2.90;;;2.70;;
6785;SDS011;3430;51.192;6.048;2022-12-26T05:03:00;2.70;;;2.50;;
6785;SDS011;3430;51.192;6.048;2022-12-26T05:05:45;3.43;;;3.10;;
6785;SDS011;3430;51.192;6.048;2022-12-26T05:08:34;2.97;;;2.60;;
6785;SDS011;3430;51.192;6.048;2022-12-26T05:11:19;2.77;;;2.57;;
6785;SDS011;3430;51.192;6.048;2022-12-26T05:13:44;3.80;;;3.03;;
6785;SDS011;3430;51.192;6.048;2022-12-26T05:16:10;3.87;;;3.17;;
6785;SDS011;3430;51.192;6.048;2022-12-26T05:18:54;2.80;;;2.57;;
6785;SDS011;3430;51.192;6.048;2022-12-26T05:21:40;3.17;;;2.87;;
6785;SDS011;3430;51.192;6.048;2022-12-26T05:24:26;2.70;;;2.50;;
6785;SDS011;3430;51.192;6.048;2022-12-26T05:27:12;3.23;;;2.93;;
6785;SDS011;3430;51.192;6.048;2022-12-26T05:30:14;5.13;;;3.53;;
6785;SDS011;3430;51.192;6.048;2022-12-26T05:32:44;2.80;;;2.60;;
6785;SDS011;3430;51.192;6.048;2022-12-26T05:35:30;2.80;;;2.60;;
6785;SDS011;3430;51.192;6.048;2022-12-26T05:37:56;3.37;;;2.97;;
6785;SDS011;3430;51.192;6.048;2022-12-26T05:40:22;2.87;;;2.60;;
6785;SDS011;3430;51.192;6.048;2022-12-26T05:42:47;2.80;;;2.60;;
6785;SDS011;3430;51.192;6.048;2022-12-26T05:45:23;3.10;;;2.90;;
6785;SDS011;3430;51.192;6.048;2022-12-26T05:48:00;2.80;;;2.60;;
6785;SDS011;3430;51.192;6.048;2022-12-26T05:50:29;3.13;;;2.93;;
6785;SDS011;3430;51.192;6.048;2022-12-26T05:52:56;3.00;;;2.80;;
6785;SDS011;3430;51.192;6.048;2022-12-26T05:55:22;4.20;;;2.90;;
6785;SDS011;3430;51.192;6.048;2022-12-26T05:57:49;3.63;;;3.33;;
6785;SDS011;3430;51.192;6.048;2022-12-26T06:00:15;2.80;;;2.60;;
6785;SDS011;3430;51.192;6.048;2022-12-26T06:02:41;3.03;;;2.83;;
6785;SDS011;3430;51.192;6.048;2022-12-26T06:05:09;3.10;;;2.80;;
6785;SDS011;3430;51.192;6.048;2022-12-26T06:07:34;2.90;;;2.70;;
6785;SDS011;3430;51.192;6.048;2022-12-26T06:10:03;2.70;;;2.50;;
6785;SDS011;3430;51.192;6.048;2022-12-26T06:12:30;3.10;;;2.87;;
6785;SDS011;3430;51.192;6.048;2022-12-26T06:15:06;2.70;;;2.50;;
6785;SDS011;3430;51.192;6.048;2022-12-26T06:17:32;3.20;;;2.97;;
6785;SDS011;3430;51.192;6.048;2022-12-26T06:20:00;3.20;;;2.90;;
6785;SDS011;3430;51.192;6.048;2022-12-26T06:22:27;3.00;;;2.80;;
6785;SDS011;3430;51.192;6.048;2022-12-26T06:24:55;4.07;;;2.80;;
6785;SDS011;3430;51.192;6.048;2022-12-26T06:27:21;3.20;;;2.67;;
6785;SDS011;3430;51.192;6.048;2022-12-26T06:29:50;3.20;;;3.00;;
6785;SDS011;3430;51.192;6.048;2022-12-26T06:32:17;2.60;;;2.40;;
6785;SDS011;3430;51.192;6.048;2022-12-26T06:34:50;2.70;;;2.50;;
6785;SDS011;3430;51.192;6.048;2022-12-26T06:37:18;2.80;;;2.60;;
6785;SDS011;3430;51.192;6.048;2022-12-26T06:39:48;2.93;;;2.73;;
6785;SDS011;3430;51.192;6.048;2022-12-26T06:42:13;2.90;;;2.70;;
6785;SDS011;3430;51.192;6.048;2022-12-26T06:44:39;2.73;;;2.57;;
6785;SDS011;3430;51.192;6.048;2022-12-26T06:47:06;2.80;;;2.60;;
6785;SDS011;3430;51.192;6.048;2022-12-26T06:49:31;3.33;;;3.07;;
6785;SDS011;3430;51.192;6.048;2022-12-26T06:51:57;3.53;;;2.73;;
6785;SDS011;3430;51.192;6.048;2022-12-26T06:54:22;3.20;;;3.00;;
6785;SDS011;3430;51.192;6.048;2022-12-26T06:56:48;3.40;;;3.10;;
6785;SDS011;3430;51.192;6.048;2022-12-26T06:59:15;2.70;;;2.50;;
6785;SDS011;3430;51.192;6.048;2022-12-26T07:01:44;3.20;;;2.73;;
6785;SDS011;3430;51.192;6.048;2022-12-26T07:04:10;3.30;;;3.00;;
6785;SDS011;3430;51.192;6.048;2022-12-26T07:06:40;2.90;;;2.70;;
6785;SDS011;3430;51.192;6.048;2022-12-26T07:11:32;3.07;;;2.77;;
6785;SDS011;3430;51.192;6.048;2022-12-26T07:14:02;2.97;;;2.47;;
6785;SDS011;3430;51.192;6.048;2022-12-26T07:16:28;2.80;;;2.50;;
6785;SDS011;3430;51.192;6.048;2022-12-26T07:18:57;2.80;;;2.60;;
6785;SDS011;3430;51.192;6.048;2022-12-26T07:21:23;3.23;;;3.03;;
6785;SDS011;3430;51.192;6.048;2022-12-26T07:23:52;2.80;;;2.57;;
6785;SDS011;3430;51.192;6.048;2022-12-26T07:26:18;3.10;;;2.90;;
6785;SDS011;3430;51.192;6.048;2022-12-26T07:28:44;2.60;;;2.40;;
6785;SDS011;3430;51.192;6.048;2022-12-26T07:31:14;2.70;;;2.50;;
6785;SDS011;3430;51.192;6.048;2022-12-26T07:33:45;2.70;;;2.50;;
6785;SDS011;3430;51.192;6.048;2022-12-26T07:36:10;2.90;;;2.63;;
6785;SDS011;3430;51.192;6.048;2022-12-26T07:38:36;2.77;;;2.40;;
6785;SDS011;3430;51.192;6.048;2022-12-26T07:41:01;2.47;;;2.27;;
6785;SDS011;3430;51.192;6.048;2022-12-26T07:43:45;3.03;;;2.73;;
6785;SDS011;3430;51.192;6.048;2022-12-26T07:46:11;3.23;;;2.93;;
6785;SDS011;3430;51.192;6.048;2022-12-26T07:48:39;2.43;;;2.30;;
6785;SDS011;3430;51.192;6.048;2022-12-26T07:51:07;3.93;;;2.60;;
6785;SDS011;3430;51.192;6.048;2022-12-26T07:53:33;2.80;;;2.60;;
6785;SDS011;3430;51.192;6.048;2022-12-26T07:56:01;2.50;;;2.30;;
6785;SDS011;3430;51.192;6.048;2022-12-26T07:58:30;3.20;;;3.00;;
6785;SDS011;3430;51.192;6.048;2022-12-26T08:01:03;2.70;;;2.50;;
6785;SDS011;3430;51.192;6.048;2022-12-26T08:03:31;2.53;;;2.43;;
6785;SDS011;3430;51.192;6.048;2022-12-26T08:05:57;3.03;;;2.67;;
6785;SDS011;3430;51.192;6.048;2022-12-26T08:08:23;2.77;;;2.57;;
6785;SDS011;3430;51.192;6.048;2022-12-26T08:10:59;2.70;;;2.50;;
6785;SDS011;3430;51.192;6.048;2022-12-26T08:13:27;2.63;;;2.43;;
6785;SDS011;3430;51.192;6.048;2022-12-26T08:15:54;4.40;;;2.83;;
6785;SDS011;3430;51.192;6.048;2022-12-26T08:18:21;2.80;;;2.60;;
6785;SDS011;3430;51.192;6.048;2022-12-26T08:20:47;2.43;;;2.27;;
6785;SDS011;3430;51.192;6.048;2022-12-26T08:23:12;3.50;;;2.23;;
6785;SDS011;3430;51.192;6.048;2022-12-26T08:25:41;2.63;;;2.43;;
6785;SDS011;3430;51.192;6.048;2022-12-26T08:28:07;2.60;;;2.40;;
6785;SDS011;3430;51.192;6.048;2022-12-26T08:30:39;2.50;;;2.30;;
6785;SDS011;3430;51.192;6.048;2022-12-26T08:33:08;2.20;;;2.10;;
6785;SDS011;3430;51.192;6.048;2022-12-26T08:35:36;2.87;;;2.53;;
6785;SDS011;3430;51.192;6.048;2022-12-26T08:38:02;2.80;;;2.27;;
6785;SDS011;3430;51.192;6.048;2022-12-26T08:40:28;2.40;;;2.20;;
6785;SDS011;3430;51.192;6.048;2022-12-26T08:42:53;2.40;;;2.20;;
6785;SDS011;3430;51.192;6.048;2022-12-26T08:45:19;2.40;;;2.20;;
6785;SDS011;3430;51.192;6.048;2022-12-26T08:47:48;2.10;;;2.00;;
6785;SDS011;3430;51.192;6.048;2022-12-26T08:50:19;2.30;;;2.20;;
6785;SDS011;3430;51.192;6.048;2022-12-26T08:52:44;2.30;;;2.20;;
6785;SDS011;3430;51.192;6.048;2022-12-26T08:55:14;2.50;;;2.30;;
6785;SDS011;3430;51.192;6.048;2022-12-26T08:57:40;2.13;;;2.03;;
6785;SDS011;3430;51.192;6.048;2022-12-26T09:00:05;2.50;;;2.30;;
6785;SDS011;3430;51.192;6.048;2022-12-26T09:02:31;2.27;;;2.07;;
6785;SDS011;3430;51.192;6.048;2022-12-26T09:04:59;2.50;;;2.30;;
6785;SDS011;3430;51.192;6.048;2022-12-26T09:07:31;2.73;;;2.53;;
6785;SDS011;3430;51.192;6.048;2022-12-26T09:09:56;2.23;;;2.03;;
6785;SDS011;3430;51.192;6.048;2022-12-26T09:12:22;2.50;;;2.30;;
6785;SDS011;3430;51.192;6.048;2022-12-26T09:14:47;2.30;;;2.20;;
6785;SDS011;3430;51.192;6.048;2022-12-26T09:17:13;2.80;;;2.60;;
6785;SDS011;3430;51.192;6.048;2022-12-26T09:19:39;2.50;;;2.30;;
6785;SDS011;3430;51.192;6.048;2022-12-26T09:22:10;2.50;;;2.30;;
6785;SDS011;3430;51.192;6.048;2022-12-26T09:24:54;2.30;;;2.17;;
6785;SDS011;3430;51.192;6.048;2022-12-26T09:27:20;2.40;;;2.27;;
6785;SDS011;3430;51.192;6.048;2022-12-26T09:29:46;2.10;;;2.00;;
6785;SDS011;3430;51.192;6.048;2022-12-26T09:32:12;2.40;;;2.20;;
6785;SDS011;3430;51.192;6.048;2022-12-26T09:34:37;2.43;;;2.23;;
6785;SDS011;3430;51.192;6.048;2022-12-26T09:37:04;2.30;;;2.20;;
6785;SDS011;3430;51.192;6.048;2022-12-26T09:39:39;2.40;;;2.20;;
6785;SDS011;3430;51.192;6.048;2022-12-26T09:44:52;2.10;;;2.00;;
6785;SDS011;3430;51.192;6.048;2022-12-26T09:47:33;2.67;;;2.23;;
6785;SDS011;3430;51.192;6.048;2022-12-26T09:52:41;2.27;;;2.10;;
6785;SDS011;3430;51.192;6.048;2022-12-26T09:57:53;2.37;;;2.27;;
6785;SDS011;3430;51.192;6.048;2022-12-26T10:00:23;2.97;;;2.70;;
6785;SDS011;3430;51.192;6.048;2022-12-26T10:02:56;2.97;;;2.30;;
6785;SDS011;3430;51.192;6.048;2022-12-26T10:05:24;2.00;;;1.90;;
6785;SDS011;3430;51.192;6.048;2022-12-26T10:07:58;3.47;;;2.43;;
6785;SDS011;3430;51.192;6.048;2022-12-26T10:10:32;2.27;;;2.10;;
6785;SDS011;3430;51.192;6.048;2022-12-26T10:20:46;2.10;;;2.00;;
6785;SDS011;3430;51.192;6.048;2022-12-26T10:23:25;2.13;;;2.03;;
6785;SDS011;3430;51.192;6.048;2022-12-26T10:25:58;2.70;;;2.27;;
6785;SDS011;3430;51.192;6.048;2022-12-26T10:28:33;2.27;;;2.10;;
6785;SDS011;3430;51.192;6.048;2022-12-26T10:31:01;2.67;;;2.47;;
6785;SDS011;3430;51.192;6.048;2022-12-26T10:33:32;6.40;;;2.37;;
6785;SDS011;3430;51.192;6.048;2022-12-26T10:35:58;3.03;;;2.40;;
6785;SDS011;3430;51.192;6.048;2022-12-26T10:38:42;2.40;;;2.20;;
6785;SDS011;3430;51.192;6.048;2022-12-26T10:41:19;2.10;;;2.00;;
6785;SDS011;3430;51.192;6.048;2022-12-26T10:43:50;2.27;;;2.13;;
6785;SDS011;3430;51.192;6.048;2022-12-26T10:49:03;2.90;;;2.20;;
6785;SDS011;3430;51.192;6.048;2022-12-26T10:51:39;2.10;;;2.00;;
6785;SDS011;3430;51.192;6.048;2022-12-26T10:54:22;2.33;;;2.13;;
6785;SDS011;3430;51.192;6.048;2022-12-26T10:56:50;2.60;;;2.40;;
6785;SDS011;3430;51.192;6.048;2022-12-26T10:59:21;2.43;;;2.23;;
6785;SDS011;3430;51.192;6.048;2022-12-26T11:01:51;2.67;;;2.20;;
6785;SDS011;3430;51.192;6.048;2022-12-26T11:04:21;2.30;;;2.10;;
6785;SDS011;3430;51.192;6.048;2022-12-26T11:06:48;2.30;;;2.20;;
6785;SDS011;3430;51.192;6.048;2022-12-26T11:11:54;2.30;;;2.10;;
6785;SDS011;3430;51.192;6.048;2022-12-26T11:16:58;2.40;;;2.20;;
6785;SDS011;3430;51.192;6.048;2022-12-26T11:19:27;2.20;;;2.00;;
6785;SDS011;3430;51.192;6.048;2022-12-26T11:21:53;3.03;;;2.37;;
6785;SDS011;3430;51.192;6.048;2022-12-26T11:24:19;3.00;;;2.30;;
6785;SDS011;3430;51.192;6.048;2022-12-26T11:26:45;2.80;;;2.00;;
6785;SDS011;3430;51.192;6.048;2022-12-26T11:29:15;2.83;;;2.50;;
6785;SDS011;3430;51.192;6.048;2022-12-26T11:31:42;2.03;;;1.93;;
6785;SDS011;3430;51.192;6.048;2022-12-26T11:34:10;3.93;;;2.13;;
6785;SDS011;3430;51.192;6.048;2022-12-26T11:36:36;3.00;;;2.07;;
6785;SDS011;3430;51.192;6.048;2022-12-26T11:39:06;2.20;;;2.10;;
6785;SDS011;3430;51.192;6.048;2022-12-26T11:41:36;2.40;;;2.20;;
6785;SDS011;3430;51.192;6.048;2022-12-26T11:46:43;2.50;;;2.10;;
6785;SDS011;3430;51.192;6.048;2022-12-26T11:49:27;2.73;;;2.10;;
6785;SDS011;3430;51.192;6.048;2022-12-26T11:51:54;2.07;;;1.90;;
6785;SDS011;3430;51.192;6.048;2022-12-26T11:59:47;2.57;;;2.20;;
6785;SDS011;3430;51.192;6.048;2022-12-26T12:02:27;2.40;;;2.20;;
6785;SDS011;3430;51.192;6.048;2022-12-26T12:04:58;2.87;;;2.67;;
6785;SDS011;3430;51.192;6.048;2022-12-26T12:07:42;4.20;;;2.23;;
6785;SDS011;3430;51.192;6.048;2022-12-26T12:13:03;3.00;;;2.53;;
6785;SDS011;3430;51.192;6.048;2022-12-26T12:15:42;3.00;;;2.10;;
6785;SDS011;3430;51.192;6.048;2022-12-26T12:26:03;2.33;;;1.97;;
6785;SDS011;3430;51.192;6.048;2022-12-26T12:28:51;4.73;;;2.30;;
6785;SDS011;3430;51.192;6.048;2022-12-26T12:44:12;3.10;;;2.13;;
6785;SDS011;3430;51.192;6.048;2022-12-26T12:49:37;2.07;;;1.97;;
6785;SDS011;3430;51.192;6.048;2022-12-26T13:02:39;2.40;;;2.30;;
6785;SDS011;3430;51.192;6.048;2022-12-26T13:05:13;3.67;;;2.83;;
6785;SDS011;3430;51.192;6.048;2022-12-26T13:07:41;2.60;;;2.40;;
6785;SDS011;3430;51.192;6.048;2022-12-26T13:10:18;2.30;;;2.10;;
6785;SDS011;3430;51.192;6.048;2022-12-26T13:12:45;2.20;;;2.00;;
6785;SDS011;3430;51.192;6.048;2022-12-26T13:15:55;2.43;;;2.23;;
6785;SDS011;3430;51.192;6.048;2022-12-26T13:23:26;6.97;;;2.40;;
6785;SDS011;3430;51.192;6.048;2022-12-26T13:26:09;4.40;;;2.27;;
6785;SDS011;3430;51.192;6.048;2022-12-26T13:28:38;3.00;;;2.20;;
6785;SDS011;3430;51.192;6.048;2022-12-26T13:31:05;3.20;;;2.10;;
6785;SDS011;3430;51.192;6.048;2022-12-26T13:33:30;2.23;;;2.13;;
6785;SDS011;3430;51.192;6.048;2022-12-26T13:35:57;2.07;;;1.87;;
6785;SDS011;3430;51.192;6.048;2022-12-26T13:38:23;2.33;;;2.13;;
6785;SDS011;3430;51.192;6.048;2022-12-26T13:43:19;2.53;;;2.20;;
6785;SDS011;3430;51.192;6.048;2022-12-26T13:46:04;2.47;;;2.27;;
6785;SDS011;3430;51.192;6.048;2022-12-26T13:51:38;3.53;;;2.40;;
6785;SDS011;3430;51.192;6.048;2022-12-26T13:53:57;6.13;;;2.53;;
6785;SDS011;3430;51.192;6.048;2022-12-26T13:59:03;4.43;;;2.07;;
6785;SDS011;3430;51.192;6.048;2022-12-26T14:22:11;2.23;;;2.03;;
6785;SDS011;3430;51.192;6.048;2022-12-26T14:25:25;7.20;;;2.73;;
6785;SDS011;3430;51.192;6.048;2022-12-26T14:38:01;2.20;;;2.10;;
6785;SDS011;3430;51.192;6.048;2022-12-26T14:40:32;2.20;;;2.10;;
6785;SDS011;3430;51.192;6.048;2022-12-26T14:50:44;3.00;;;2.10;;
6785;SDS011;3430;51.192;6.048;2022-12-26T15:01:42;4.60;;;2.50;;
6785;SDS011;3430;51.192;6.048;2022-12-26T15:08:49;3.73;;;2.90;;
6785;SDS011;3430;51.192;6.048;2022-12-26T15:16:39;4.33;;;2.47;;
6785;SDS011;3430;51.192;6.048;2022-12-26T15:34:52;2.17;;;2.07;;
6785;SDS011;3430;51.192;6.048;2022-12-26T15:37:44;3.43;;;2.27;;
6785;SDS011;3430;51.192;6.048;2022-12-26T16:00:49;2.50;;;2.30;;
6785;SDS011;3430;51.192;6.048;2022-12-26T16:11:23;2.33;;;2.23;;
6785;SDS011;3430;51.192;6.048;2022-12-26T16:13:59;3.17;;;2.00;;
6785;SDS011;3430;51.192;6.048;2022-12-26T16:18:50;5.33;;;2.37;;
6785;SDS011;3430;51.192;6.048;2022-12-26T16:21:16;3.20;;;2.27;;
6785;SDS011;3430;51.192;6.048;2022-12-26T16:24:01;2.40;;;2.20;;
6785;SDS011;3430;51.192;6.048;2022-12-26T16:26:28;2.30;;;2.10;;
6785;SDS011;3430;51.192;6.048;2022-12-26T16:28:55;8.73;;;2.83;;
6785;SDS011;3430;51.192;6.048;2022-12-26T16:31:26;2.13;;;1.93;;
6785;SDS011;3430;51.192;6.048;2022-12-26T16:33:53;2.23;;;2.10;;
6785;SDS011;3430;51.192;6.048;2022-12-26T16:36:22;2.67;;;2.40;;
6785;SDS011;3430;51.192;6.048;2022-12-26T16:38:49;2.43;;;2.23;;
6785;SDS011;3430;51.192;6.048;2022-12-26T16:43:46;2.40;;;2.13;;
6785;SDS011;3430;51.192;6.048;2022-12-26T16:46:12;2.50;;;2.30;;
6785;SDS011;3430;51.192;6.048;2022-12-26T16:48:38;3.20;;;2.10;;
6785;SDS011;3430;51.192;6.048;2022-12-26T16:51:05;2.50;;;2.30;;
6785;SDS011;3430;51.192;6.048;2022-12-26T16:58:43;2.93;;;2.23;;
6785;SDS011;3430;51.192;6.048;2022-12-26T17:01:10;3.50;;;2.40;;
6785;SDS011;3430;51.192;6.048;2022-12-26T17:03:38;2.40;;;2.20;;
6785;SDS011;3430;51.192;6.048;2022-12-26T17:06:06;2.40;;;2.20;;
6785;SDS011;3430;51.192;6.048;2022-12-26T17:08:31;3.27;;;2.97;;
6785;SDS011;3430;51.192;6.048;2022-12-26T17:10:57;2.80;;;2.43;;
6785;SDS011;3430;51.192;6.048;2022-12-26T17:13:23;3.43;;;1.97;;
6785;SDS011;3430;51.192;6.048;2022-12-26T17:15:54;2.57;;;2.37;;
6785;SDS011;3430;51.192;6.048;2022-12-26T17:20:55;2.07;;;1.90;;
6785;SDS011;3430;51.192;6.048;2022-12-26T17:23:37;2.20;;;2.00;;
6785;SDS011;3430;51.192;6.048;2022-12-26T17:26:15;2.00;;;1.90;;
6785;SDS011;3430;51.192;6.048;2022-12-26T17:28:41;2.63;;;2.43;;
6785;SDS011;3430;51.192;6.048;2022-12-26T17:31:49;3.00;;;2.80;;
6785;SDS011;3430;51.192;6.048;2022-12-26T17:33:55;2.97;;;2.60;;
6785;SDS011;3430;51.192;6.048;2022-12-26T17:36:21;5.53;;;2.50;;
6785;SDS011;3430;51.192;6.048;2022-12-26T17:38:48;2.60;;;2.40;;
6785;SDS011;3430;51.192;6.048;2022-12-26T17:41:14;2.47;;;2.30;;
6785;SDS011;3430;51.192;6.048;2022-12-26T17:43:40;2.57;;;2.37;;
6785;SDS011;3430;51.192;6.048;2022-12-26T17:46:07;2.30;;;2.20;;
6785;SDS011;3430;51.192;6.048;2022-12-26T17:48:33;2.40;;;2.27;;
6785;SDS011;3430;51.192;6.048;2022-12-26T17:50:59;2.70;;;2.33;;
6785;SDS011;3430;51.192;6.048;2022-12-26T17:55:51;3.27;;;2.40;;
6785;SDS011;3430;51.192;6.048;2022-12-26T17:58:17;2.80;;;2.47;;
6785;SDS011;3430;51.192;6.048;2022-12-26T18:00:42;2.43;;;2.30;;
6785;SDS011;3430;51.192;6.048;2022-12-26T18:03:08;2.97;;;2.77;;
6785;SDS011;3430;51.192;6.048;2022-12-26T18:05:34;2.23;;;2.10;;
6785;SDS011;3430;51.192;6.048;2022-12-26T18:07:59;2.60;;;2.40;;
6785;SDS011;3430;51.192;6.048;2022-12-26T18:10:26;3.60;;;2.70;;
6785;SDS011;3430;51.192;6.048;2022-12-26T18:12:53;2.27;;;2.13;;
6785;SDS011;3430;51.192;6.048;2022-12-26T18:15:18;5.93;;;2.60;;
6785;SDS011;3430;51.192;6.048;2022-12-26T18:17:44;2.73;;;2.53;;
6785;SDS011;3430;51.192;6.048;2022-12-26T18:22:42;2.70;;;2.33;;
6785;SDS011;3430;51.192;6.048;2022-12-26T18:25:10;2.60;;;2.40;;
6785;SDS011;3430;51.192;6.048;2022-12-26T18:27:36;2.60;;;2.40;;
6785;SDS011;3430;51.192;6.048;2022-12-26T18:30:01;2.93;;;2.60;;
6785;SDS011;3430;51.192;6.048;2022-12-26T18:32:28;2.60;;;2.40;;
6785;SDS011;3430;51.192;6.048;2022-12-26T18:34:54;2.80;;;2.60;;
6785;SDS011;3430;51.192;6.048;2022-12-26T18:37:20;2.90;;;2.60;;
6785;SDS011;3430;51.192;6.048;2022-12-26T18:39:48;2.80;;;2.60;;
6785;SDS011;3430;51.192;6.048;2022-12-26T18:42:14;3.17;;;2.87;;
6785;SDS011;3430;51.192;6.048;2022-12-26T18:44:40;2.73;;;2.53;;
6785;SDS011;3430;51.192;6.048;2022-12-26T18:47:08;4.33;;;2.60;;
6785;SDS011;3430;51.192;6.048;2022-12-26T18:49:34;2.50;;;2.30;;
6785;SDS011;3430;51.192;6.048;2022-12-26T18:51:59;2.50;;;2.30;;
6785;SDS011;3430;51.192;6.048;2022-12-26T18:54:24;2.67;;;2.30;;
6785;SDS011;3430;51.192;6.048;2022-12-26T18:56:50;4.27;;;2.60;;
6785;SDS011;3430;51.192;6.048;2022-12-26T18:59:15;2.60;;;2.40;;
6785;SDS011;3430;51.192;6.048;2022-12-26T19:01:41;2.73;;;2.37;;
6785;SDS011;3430;51.192;6.048;2022-12-26T19:04:06;2.83;;;2.43;;
6785;SDS011;3430;51.192;6.048;2022-12-26T19:06:31;2.40;;;2.20;;
6785;SDS011;3430;51.192;6.048;2022-12-26T19:08:59;2.47;;;2.27;;
6785;SDS011;3430;51.192;6.048;2022-12-26T19:11:24;3.00;;;2.73;;
6785;SDS011;3430;51.192;6.048;2022-12-26T19:13:50;2.40;;;2.20;;
6785;SDS011;3430;51.192;6.048;2022-12-26T19:16:15;2.80;;;2.60;;
6785;SDS011;3430;51.192;6.048;2022-12-26T19:18:40;2.50;;;2.30;;
6785;SDS011;3430;51.192;6.048;2022-12-26T19:21:10;2.90;;;2.70;;
6785;SDS011;3430;51.192;6.048;2022-12-26T19:23:35;2.77;;;2.37;;
6785;SDS011;3430;51.192;6.048;2022-12-26T19:26:06;2.83;;;2.50;;
6785;SDS011;3430;51.192;6.048;2022-12-26T19:28:32;3.83;;;2.70;;
6785;SDS011;3430;51.192;6.048;2022-12-26T19:30:57;2.40;;;2.20;;
6785;SDS011;3430;51.192;6.048;2022-12-26T19:33:29;3.10;;;2.60;;
6785;SDS011;3430;51.192;6.048;2022-12-26T19:35:54;2.90;;;2.70;;
6785;SDS011;3430;51.192;6.048;2022-12-26T19:38:20;2.67;;;2.47;;
6785;SDS011;3430;51.192;6.048;2022-12-26T19:40:45;3.10;;;2.80;;
6785;SDS011;3430;51.192;6.048;2022-12-26T19:43:11;2.40;;;2.30;;